Airport ID:KMHV
Update Time (UTC):21/05/2019 13:47
Wind Speed (Knots):16
Wind Direction (Magnetic):220
Temperature (°C):11
Dew Point (°C):4
Humidity (%):65
Altimeter (inHg):29.84
Density Altitude (Feet):
Visibility (Miles):10+
Clouds (Hundreds of feet):BKN028 OVC035
Present Weather:
METAR:METAR KMHV 211340Z AUTO 21013G21KT 10SM OVC028 11/04 A2985 RMK A01

The data displayed is for advisory purposes only and is not to be used for flight planning or operations.

This page is not automatically refreshed. Reload the page to see current data.